createdAt,value
2023-05-15T00:00:35.672Z,8.60
2023-05-15T00:01:37.051Z,7.10
2023-05-15T00:02:37.500Z,7.50
2023-05-15T00:03:38.545Z,8.00
2023-05-15T00:04:38.966Z,6.80
2023-05-15T00:05:39.837Z,10.10
2023-05-15T00:06:40.736Z,8.30
2023-05-15T00:07:41.658Z,7.40
2023-05-15T00:08:42.541Z,8.70
2023-05-15T00:09:43.416Z,8.30
2023-05-15T00:10:53.980Z,8.20
2023-05-15T00:11:46.096Z,7.40
2023-05-15T00:12:45.952Z,9.80
2023-05-15T00:13:46.891Z,7.50
2023-05-15T00:14:47.765Z,7.90
2023-05-15T00:15:48.697Z,8.10
2023-05-15T00:16:49.585Z,8.60
2023-05-15T00:17:50.496Z,7.60
2023-05-15T00:18:51.475Z,8.20
2023-05-15T00:19:52.324Z,7.80
2023-05-15T00:20:53.204Z,9.20
2023-05-15T00:21:54.116Z,8.90
2023-05-15T00:22:54.982Z,7.60
2023-05-15T00:23:55.877Z,7.40
2023-05-15T00:24:56.796Z,7.80
2023-05-15T00:25:57.704Z,8.80
2023-05-15T00:26:58.660Z,8.90
2023-05-15T00:27:59.525Z,8.10
2023-05-15T00:29:00.393Z,7.10
2023-05-15T00:30:01.244Z,8.60
2023-05-15T00:31:02.128Z,8.30
2023-05-15T00:32:03.022Z,7.40
2023-05-15T00:33:03.926Z,8.50
2023-05-15T00:34:04.819Z,7.80
2023-05-15T00:35:05.707Z,8.20
2023-05-15T00:36:06.596Z,8.70
2023-05-15T00:37:07.471Z,7.40
2023-05-15T00:38:08.353Z,8.20
2023-05-15T00:39:09.235Z,7.20
2023-05-15T00:40:10.095Z,9.40
2023-05-15T00:41:10.967Z,8.60
2023-05-15T00:42:11.896Z,9.00
2023-05-15T00:43:12.767Z,9.00
2023-05-15T00:44:13.640Z,10.40
2023-05-15T00:45:14.537Z,8.70
2023-05-15T00:46:15.429Z,9.60
2023-05-15T00:47:16.375Z,10.50
2023-05-15T00:48:17.248Z,8.00
2023-05-15T00:49:18.113Z,8.70
2023-05-15T00:50:19.007Z,9.40
2023-05-15T00:51:19.887Z,8.80
2023-05-15T00:52:20.808Z,8.90
2023-05-15T00:53:21.701Z,10.20
2023-05-15T00:54:22.583Z,9.90
2023-05-15T00:55:23.604Z,8.80
2023-05-15T00:56:24.021Z,9.80
2023-05-15T00:57:24.945Z,10.30
2023-05-15T00:58:25.830Z,8.50
2023-05-15T00:59:26.697Z,8.80
2023-05-15T01:00:27.571Z,9.40
2023-05-15T01:01:28.548Z,8.70
2023-05-15T01:02:29.535Z,9.40
2023-05-15T01:03:30.435Z,8.30
2023-05-15T01:04:31.271Z,9.30
2023-05-15T01:05:32.143Z,9.90
2023-05-15T01:06:33.011Z,9.70
2023-05-15T01:07:33.976Z,9.30
2023-05-15T01:08:34.803Z,10.00
2023-05-15T01:09:35.681Z,9.00
2023-05-15T01:10:36.554Z,9.00
2023-05-15T01:11:37.459Z,8.50
2023-05-15T01:12:38.384Z,10.30
2023-05-15T01:13:39.251Z,9.60
2023-05-15T01:14:40.140Z,9.40
2023-05-15T01:15:41.022Z,8.70
2023-05-15T01:16:41.901Z,8.80
2023-05-15T01:17:42.842Z,9.30
2023-05-15T01:18:43.823Z,9.50
2023-05-15T01:19:44.335Z,8.20
2023-05-15T01:20:44.741Z,9.10
2023-05-15T01:21:45.647Z,8.90
2023-05-15T01:22:46.532Z,9.20
2023-05-15T01:23:47.400Z,10.60
2023-05-15T01:24:48.274Z,10.30
2023-05-15T01:25:49.172Z,11.70
2023-05-15T01:26:50.040Z,8.40
2023-05-15T01:27:50.954Z,9.10
2023-05-15T01:28:51.848Z,9.30
2023-05-15T01:29:52.729Z,10.50
2023-05-15T01:30:53.630Z,8.40
2023-05-15T01:31:54.546Z,10.60
2023-05-15T01:32:55.519Z,9.90
2023-05-15T01:33:56.403Z,9.00
2023-05-15T01:34:57.276Z,10.10
2023-05-15T01:35:58.160Z,9.40
2023-05-15T01:36:59.050Z,9.50
2023-05-15T01:37:59.982Z,8.40
2023-05-15T01:39:00.852Z,9.90
2023-05-15T01:40:01.722Z,9.10
2023-05-15T01:41:02.618Z,9.30
2023-05-15T01:42:03.512Z,10.40
2023-05-15T01:43:04.419Z,10.00
2023-05-15T01:44:05.282Z,9.70
2023-05-15T01:45:06.155Z,9.20
2023-05-15T01:46:07.071Z,8.30
2023-05-15T01:47:07.993Z,8.40
2023-05-15T01:48:08.889Z,10.60
2023-05-15T01:49:09.761Z,9.00
2023-05-15T01:50:10.629Z,8.40
2023-05-15T01:51:11.508Z,9.30
2023-05-15T01:52:12.369Z,10.50
2023-05-15T01:53:13.292Z,10.50
2023-05-15T01:54:14.158Z,9.90
2023-05-15T01:55:15.065Z,8.70
2023-05-15T01:56:15.924Z,10.90
2023-05-15T01:57:16.821Z,10.40
2023-05-15T01:58:17.736Z,9.40
2023-05-15T01:59:18.590Z,10.10
2023-05-15T02:00:19.468Z,9.40
2023-05-15T02:01:20.392Z,10.90
2023-05-15T02:02:21.369Z,10.30
2023-05-15T02:03:22.367Z,10.60
2023-05-15T02:04:22.822Z,9.60
2023-05-15T02:05:23.785Z,10.40
2023-05-15T02:06:24.231Z,10.10
2023-05-15T02:07:25.097Z,9.70
2023-05-15T02:08:26.006Z,11.80
2023-05-15T02:09:26.891Z,10.30
2023-05-15T02:10:27.758Z,10.80
2023-05-15T02:11:28.650Z,10.60
2023-05-15T02:12:29.525Z,10.30
2023-05-15T02:13:30.469Z,11.30
2023-05-15T02:14:31.370Z,10.80
2023-05-15T02:15:32.237Z,10.80
2023-05-15T02:16:33.162Z,10.10
2023-05-15T02:17:34.131Z,10.60
2023-05-15T02:18:35.092Z,10.80
2023-05-15T02:19:35.977Z,11.20
2023-05-15T02:20:36.844Z,9.80
2023-05-15T02:21:37.761Z,10.90
2023-05-15T02:22:38.640Z,10.40
2023-05-15T02:23:39.538Z,11.10
2023-05-15T02:24:40.442Z,10.80
2023-05-15T02:25:41.380Z,10.70
2023-05-15T02:26:42.218Z,12.00
2023-05-15T02:27:43.078Z,10.70
2023-05-15T02:28:44.011Z,12.20
2023-05-15T02:29:44.916Z,11.70
2023-05-15T02:30:45.803Z,10.90
2023-05-15T02:31:46.725Z,11.30
2023-05-15T02:32:47.661Z,12.00
2023-05-15T02:33:48.548Z,11.70
2023-05-15T02:34:49.426Z,11.30
2023-05-15T02:35:50.352Z,11.40
2023-05-15T02:36:51.220Z,11.60
2023-05-15T02:37:52.122Z,12.00
2023-05-15T02:38:53.041Z,11.10
2023-05-15T02:39:53.922Z,11.40
2023-05-15T02:40:54.776Z,10.60
2023-05-15T02:41:55.673Z,10.10
2023-05-15T02:42:56.542Z,10.80
2023-05-15T02:43:57.453Z,11.70
2023-05-15T02:44:58.310Z,11.90
2023-05-15T02:45:59.262Z,12.60
2023-05-15T02:47:00.192Z,12.20
2023-05-15T02:48:01.072Z,13.50
2023-05-15T02:49:02.443Z,13.10
2023-05-15T02:50:02.824Z,12.00
2023-05-15T02:51:03.665Z,13.00
2023-05-15T02:52:04.556Z,14.00
2023-05-15T02:53:05.428Z,11.90
2023-05-15T02:54:06.319Z,12.30
2023-05-15T02:55:07.204Z,12.00
2023-05-15T02:56:08.083Z,13.60
2023-05-15T02:57:08.972Z,12.90
2023-05-15T02:58:09.858Z,12.80
2023-05-15T02:59:10.846Z,12.40
2023-05-15T03:00:11.733Z,13.60
2023-05-15T03:01:12.661Z,12.00
2023-05-15T03:02:13.546Z,12.70
2023-05-15T03:03:14.428Z,13.10
2023-05-15T03:04:15.408Z,12.80
2023-05-15T03:05:16.253Z,12.50
2023-05-15T03:06:17.139Z,13.40
2023-05-15T03:07:18.027Z,14.40
2023-05-15T03:08:18.903Z,15.00
2023-05-15T03:09:19.833Z,12.70
2023-05-15T03:10:20.695Z,13.00
2023-05-15T03:11:21.581Z,12.00
2023-05-15T03:12:22.470Z,12.40
2023-05-15T03:13:23.380Z,13.00
2023-05-15T03:14:24.297Z,14.40
2023-05-15T03:15:25.464Z,12.20
2023-05-15T03:16:26.024Z,14.50
2023-05-15T03:17:26.872Z,12.70
2023-05-15T03:18:27.818Z,13.50
2023-05-15T03:19:28.722Z,12.30
2023-05-15T03:20:29.587Z,12.20
2023-05-15T03:21:30.460Z,13.00
2023-05-15T03:22:31.371Z,12.00
2023-05-15T03:23:32.349Z,12.50
2023-05-15T03:24:33.235Z,14.10
2023-05-15T03:25:34.124Z,12.90
2023-05-15T03:26:35.004Z,12.70
2023-05-15T03:27:35.900Z,12.70
2023-05-15T03:28:36.786Z,12.10
2023-05-15T03:29:37.702Z,13.30
2023-05-15T03:30:38.580Z,13.70
2023-05-15T03:31:39.507Z,13.80
2023-05-15T03:32:40.372Z,12.60
2023-05-15T03:33:41.250Z,14.00
2023-05-15T03:34:42.160Z,15.60
2023-05-15T03:35:43.049Z,12.80
2023-05-15T03:36:43.945Z,14.20
2023-05-15T03:37:44.817Z,13.20
2023-05-15T03:38:45.692Z,13.80
2023-05-15T03:39:46.591Z,13.30
2023-05-15T03:40:50.268Z,13.10
2023-05-15T03:41:48.378Z,12.90
2023-05-15T03:42:49.255Z,13.70
2023-05-15T03:43:50.121Z,14.30
2023-05-15T03:44:51.057Z,15.00
2023-05-15T03:45:51.944Z,16.30
2023-05-15T03:46:52.867Z,15.30
2023-05-15T03:47:53.874Z,15.10
2023-05-15T03:48:54.248Z,14.40
2023-05-15T03:49:55.140Z,14.70
2023-05-15T03:50:56.052Z,15.50
2023-05-15T03:51:56.954Z,15.30
2023-05-15T03:52:57.859Z,14.80
2023-05-15T03:53:58.710Z,15.00
2023-05-15T03:54:59.612Z,15.60
2023-05-15T03:56:00.487Z,14.40
2023-05-15T03:57:01.359Z,15.00
2023-05-15T03:58:02.240Z,15.80
2023-05-15T03:59:03.134Z,15.90
2023-05-15T04:00:04.061Z,14.60
2023-05-15T04:01:04.912Z,16.10
2023-05-15T04:02:05.971Z,15.60
2023-05-15T04:03:06.551Z,15.70
2023-05-15T04:04:06.991Z,15.00
2023-05-15T04:05:07.936Z,14.40
2023-05-15T04:06:08.776Z,14.80
2023-05-15T04:07:09.673Z,14.60
2023-05-15T04:08:10.526Z,16.90
2023-05-15T04:09:11.417Z,16.00
2023-05-15T04:10:12.303Z,14.90
2023-05-15T04:11:13.198Z,15.50
2023-05-15T04:12:14.097Z,15.40
2023-05-15T04:13:15.001Z,15.30
2023-05-15T04:14:15.876Z,15.10
2023-05-15T04:15:16.834Z,13.50
2023-05-15T04:16:17.691Z,14.30
2023-05-15T04:17:18.629Z,15.10
2023-05-15T04:18:19.508Z,14.80
2023-05-15T04:19:20.464Z,15.30
2023-05-15T04:20:21.332Z,16.10
2023-05-15T04:21:22.235Z,15.20
2023-05-15T04:22:23.103Z,13.70
2023-05-15T04:23:23.962Z,15.30
2023-05-15T04:24:24.849Z,15.00
2023-05-15T04:25:26.026Z,15.40
2023-05-15T04:26:26.706Z,13.90
2023-05-15T04:27:27.557Z,15.00
2023-05-15T04:28:29.314Z,17.80
2023-05-15T04:29:29.313Z,14.80
2023-05-15T04:30:30.312Z,14.40
2023-05-15T04:31:31.180Z,17.10
2023-05-15T04:32:32.029Z,15.70
2023-05-15T04:33:32.906Z,15.50
2023-05-15T04:34:33.808Z,15.80
2023-05-15T04:35:34.733Z,14.80
2023-05-15T04:36:35.573Z,15.00
2023-05-15T04:37:36.445Z,15.50
2023-05-15T04:38:37.343Z,15.30
2023-05-15T04:39:38.220Z,15.30
2023-05-15T04:40:39.166Z,15.80
2023-05-15T04:41:41.086Z,15.00
2023-05-15T04:42:41.009Z,15.90
2023-05-15T04:43:41.934Z,15.70
2023-05-15T04:44:42.775Z,16.60
2023-05-15T04:45:43.719Z,15.70
2023-05-15T04:46:44.620Z,15.30
2023-05-15T04:47:45.489Z,15.50
2023-05-15T04:48:46.373Z,16.00
2023-05-15T04:49:47.260Z,17.20
2023-05-15T04:50:48.148Z,17.10
2023-05-15T04:51:49.028Z,16.30
2023-05-15T04:52:49.928Z,16.80
2023-05-15T04:53:50.813Z,18.90
2023-05-15T04:54:51.671Z,20.30
2023-05-15T04:55:52.657Z,19.00
2023-05-15T04:56:53.492Z,18.80
2023-05-15T04:57:54.360Z,19.50
2023-05-15T04:58:55.236Z,18.30
2023-05-15T04:59:56.113Z,18.00
2023-05-15T05:00:57.050Z,18.70
2023-05-15T05:01:58.023Z,18.50
2023-05-15T05:02:58.547Z,19.60
2023-05-15T05:03:59.499Z,20.40
2023-05-15T05:05:00.348Z,20.00
2023-05-15T05:06:01.371Z,20.90
2023-05-15T05:07:01.709Z,18.40
2023-05-15T05:08:02.584Z,18.40
2023-05-15T05:09:03.487Z,21.90
2023-05-15T05:10:04.375Z,20.70
2023-05-15T05:11:05.258Z,17.40
2023-05-15T05:12:06.166Z,21.00
2023-05-15T05:13:07.044Z,20.20
2023-05-15T05:14:07.900Z,19.90
2023-05-15T05:15:08.792Z,20.70
2023-05-15T05:16:09.724Z,21.80
2023-05-15T05:17:10.570Z,21.80
2023-05-15T05:18:11.483Z,26.30
2023-05-15T05:19:12.476Z,24.50
2023-05-15T05:20:13.553Z,26.20
2023-05-15T05:21:14.256Z,30.20
2023-05-15T05:22:14.612Z,29.60
2023-05-15T05:23:15.504Z,30.30
2023-05-15T05:24:16.366Z,33.10
2023-05-15T05:25:17.249Z,33.80
2023-05-15T05:26:18.152Z,36.90
2023-05-15T05:27:19.031Z,36.70
2023-05-15T05:28:19.891Z,35.70
2023-05-15T05:29:20.760Z,40.40
2023-05-15T05:30:21.650Z,40.50
2023-05-15T05:31:22.592Z,38.40
2023-05-15T05:32:23.433Z,41.30
2023-05-15T05:33:24.292Z,40.80
2023-05-15T05:34:25.181Z,42.30
2023-05-15T05:35:26.334Z,42.30
2023-05-15T05:36:26.923Z,42.70
2023-05-15T05:37:27.851Z,45.40
2023-05-15T05:38:28.701Z,45.50
2023-05-15T05:39:29.571Z,48.00
2023-05-15T05:40:30.461Z,49.30
2023-05-15T05:41:31.356Z,50.50
2023-05-15T05:42:32.322Z,51.50
2023-05-15T05:43:33.343Z,51.20
2023-05-15T05:44:33.733Z,56.50
2023-05-15T05:45:34.614Z,52.90
2023-05-15T05:46:35.553Z,53.20
2023-05-15T05:47:36.416Z,55.60
2023-05-15T05:48:37.281Z,55.70
2023-05-15T05:49:38.209Z,53.10
2023-05-15T05:50:39.054Z,54.10
2023-05-15T05:51:39.958Z,53.20
2023-05-15T05:52:40.845Z,54.10
2023-05-15T05:53:41.761Z,53.90
2023-05-15T05:54:42.696Z,54.50
2023-05-15T05:55:43.533Z,52.10
2023-05-15T05:56:44.495Z,53.60
2023-05-15T05:57:45.384Z,54.40
2023-05-15T05:58:46.288Z,52.50
2023-05-15T05:59:47.154Z,53.80
2023-05-15T06:00:48.038Z,51.90
2023-05-15T06:01:49.012Z,54.00
2023-05-15T06:02:49.965Z,54.20
2023-05-15T06:03:50.657Z,54.80
2023-05-15T06:04:51.092Z,55.70
2023-05-15T06:05:51.984Z,55.80
2023-05-15T06:06:52.962Z,57.30
2023-05-15T06:07:53.848Z,58.00
2023-05-15T06:08:56.296Z,58.00
2023-05-15T06:09:55.464Z,56.30
2023-05-15T06:10:56.324Z,61.50
2023-05-15T06:11:57.354Z,56.50
2023-05-15T06:12:57.932Z,61.80
2023-05-15T06:13:58.366Z,60.60
2023-05-15T06:14:59.379Z,57.90
2023-05-15T06:16:00.937Z,55.70
2023-05-15T06:17:00.873Z,54.60
2023-05-15T06:18:01.830Z,52.10
2023-05-15T06:19:02.817Z,52.30
2023-05-15T06:20:04.220Z,52.60
2023-05-15T06:21:04.183Z,48.40
2023-05-15T06:22:05.608Z,54.00
2023-05-15T06:23:05.898Z,51.50
2023-05-15T06:24:06.473Z,51.90
2023-05-15T06:25:07.758Z,53.10
2023-05-15T06:26:07.927Z,51.70
2023-05-15T06:27:08.862Z,51.60
2023-05-15T06:28:09.772Z,51.30
2023-05-15T06:29:10.673Z,52.90
2023-05-15T06:30:11.628Z,52.00
2023-05-15T06:31:12.565Z,52.20
2023-05-15T06:32:13.517Z,50.40
2023-05-15T06:33:14.448Z,52.10
2023-05-15T06:34:15.343Z,53.90
2023-05-15T06:35:16.308Z,54.20
2023-05-15T06:36:16.794Z,59.70
2023-05-15T06:37:17.705Z,60.20
2023-05-15T06:38:18.601Z,58.90
2023-05-15T06:39:19.545Z,57.50
2023-05-15T06:40:20.425Z,62.90
2023-05-15T06:41:21.413Z,63.50
2023-05-15T06:42:22.334Z,66.00
2023-05-15T06:43:23.189Z,70.30
2023-05-15T06:44:25.603Z,68.00
2023-05-15T06:45:25.251Z,69.40
2023-05-15T06:46:25.912Z,68.90
2023-05-15T06:47:26.525Z,71.70
2023-05-15T06:48:26.888Z,67.10
2023-05-15T06:49:27.839Z,65.90
2023-05-15T06:50:28.930Z,66.80
2023-05-15T06:51:29.388Z,65.00
2023-05-15T06:52:30.392Z,68.50
2023-05-15T06:53:30.924Z,68.30
2023-05-15T06:54:31.259Z,66.80
2023-05-15T06:55:32.161Z,66.60
2023-05-15T06:56:33.077Z,68.60
2023-05-15T06:57:34.065Z,67.20
2023-05-15T06:58:34.992Z,65.70
2023-05-15T06:59:36.029Z,65.60
2023-05-15T07:00:36.390Z,64.10
2023-05-15T07:01:37.345Z,64.00
2023-05-15T07:02:38.305Z,65.60
2023-05-15T07:03:39.228Z,62.80
2023-05-15T07:04:40.185Z,63.30
2023-05-15T07:05:41.160Z,59.10
2023-05-15T07:06:41.636Z,60.60
2023-05-15T07:07:42.697Z,63.10
2023-05-15T07:08:43.189Z,61.00
2023-05-15T07:09:44.160Z,62.60
2023-05-15T07:10:44.642Z,60.10
2023-05-15T07:11:45.572Z,61.20
2023-05-15T07:12:46.555Z,57.30
2023-05-15T07:13:47.020Z,59.10
2023-05-15T07:14:48.052Z,57.00
2023-05-15T07:15:48.565Z,56.90
2023-05-15T07:16:49.082Z,56.40
2023-05-15T07:17:49.823Z,56.20
2023-05-15T07:18:50.337Z,56.70
2023-05-15T07:19:51.210Z,57.60
2023-05-15T07:20:51.717Z,57.90
2023-05-15T07:21:52.679Z,57.90
2023-05-15T07:22:56.613Z,53.70
2023-05-15T07:23:54.386Z,57.70
2023-05-15T07:24:55.258Z,52.60
2023-05-15T07:25:56.172Z,52.30
2023-05-15T07:26:59.052Z,52.90
2023-05-15T07:27:57.786Z,53.40
2023-05-15T07:28:58.706Z,53.80
2023-05-15T07:29:59.604Z,55.10
2023-05-15T07:31:02.750Z,60.30
2023-05-15T07:32:01.544Z,60.50
2023-05-15T07:33:02.128Z,59.30
2023-05-15T07:34:02.564Z,57.70
2023-05-15T07:35:03.461Z,56.40
2023-05-15T07:36:04.401Z,59.70
2023-05-15T07:37:05.285Z,63.20
2023-05-15T07:38:06.220Z,57.00
2023-05-15T07:39:07.093Z,57.40
2023-05-15T07:40:08.679Z,55.10
2023-05-15T07:41:08.580Z,55.20
2023-05-15T07:42:09.549Z,53.90
2023-05-15T07:43:10.518Z,54.20
2023-05-15T07:44:11.427Z,56.80
2023-05-15T07:45:12.380Z,56.20
2023-05-15T07:46:13.322Z,57.70
2023-05-15T07:47:14.221Z,58.70
2023-05-15T07:48:15.189Z,54.60
2023-05-15T07:49:16.071Z,58.60
2023-05-15T07:50:17.065Z,57.20
2023-05-15T07:51:17.833Z,55.80
2023-05-15T07:52:18.227Z,57.50
2023-05-15T07:53:19.745Z,55.10
2023-05-15T07:54:20.646Z,56.80
2023-05-15T07:55:20.563Z,59.60
2023-05-15T07:56:21.472Z,59.40
2023-05-15T07:57:22.382Z,59.30
2023-05-15T07:58:23.984Z,54.70
2023-05-15T07:59:24.364Z,59.30
2023-05-15T08:00:25.604Z,58.80
2023-05-15T08:01:26.212Z,60.90
2023-05-15T08:02:27.856Z,61.00
2023-05-15T08:03:26.783Z,64.30
2023-05-15T08:04:27.697Z,61.10
2023-05-15T08:05:27.972Z,67.30
2023-05-15T08:06:28.536Z,69.10
2023-05-15T08:07:29.112Z,69.30
2023-05-15T08:08:29.712Z,66.90
2023-05-15T08:09:30.271Z,69.90
2023-05-15T08:10:31.682Z,69.80
2023-05-15T08:11:31.690Z,65.30
2023-05-15T08:14:24.210Z,63.30
2023-05-15T08:15:23.313Z,58.90
2023-05-15T08:16:27.078Z,59.20
2023-05-15T08:17:24.480Z,57.60
2023-05-15T08:18:25.374Z,57.20
2023-05-15T08:19:26.397Z,57.70
2023-05-15T08:20:27.335Z,56.80
2023-05-15T08:21:28.246Z,55.00
2023-05-15T08:22:29.200Z,56.50
2023-05-15T08:23:30.119Z,54.30
2023-05-15T08:24:31.420Z,54.80
2023-05-15T08:25:31.920Z,57.90
2023-05-15T08:26:32.844Z,56.50
2023-05-15T08:27:33.733Z,59.50
2023-05-15T08:28:34.775Z,59.70
2023-05-15T08:29:37.350Z,61.50
2023-05-15T08:30:36.142Z,59.50
2023-05-15T08:31:37.159Z,61.80
2023-05-15T08:32:37.610Z,60.50
2023-05-15T08:33:38.671Z,62.10
2023-05-15T08:34:39.199Z,63.40
2023-05-15T08:35:39.708Z,57.90
2023-05-15T08:36:40.147Z,61.00
2023-05-15T08:37:41.106Z,61.40
2023-05-15T08:38:42.108Z,61.00
2023-05-15T08:39:42.669Z,61.10
2023-05-15T08:40:43.628Z,62.10
2023-05-15T08:41:45.093Z,64.80
2023-05-15T08:42:45.265Z,63.00
2023-05-15T08:43:45.838Z,64.30
2023-05-15T08:44:46.343Z,61.80
2023-05-15T08:45:47.621Z,62.70
2023-05-15T08:46:48.310Z,62.70
2023-05-15T08:47:48.832Z,61.30
2023-05-15T08:48:49.772Z,64.00
2023-05-15T08:49:51.134Z,62.50
2023-05-15T08:50:51.658Z,60.50
2023-05-15T08:51:52.132Z,64.70
2023-05-15T08:52:53.114Z,64.20
2023-05-15T08:53:54.474Z,65.70
2023-05-15T08:54:54.930Z,62.20
2023-05-15T08:55:56.652Z,63.60
2023-05-15T08:56:57.692Z,63.90
2023-05-15T08:57:57.246Z,59.90
2023-05-15T08:58:58.166Z,61.60
2023-05-15T09:00:00.358Z,58.70
2023-05-15T09:00:59.825Z,60.50
2023-05-15T09:02:00.794Z,57.30
2023-05-15T09:03:01.496Z,58.70
2023-05-15T09:04:02.247Z,58.50
2023-05-15T09:05:02.858Z,58.50
2023-05-15T09:06:03.329Z,57.20
2023-05-15T09:07:03.925Z,59.20
2023-05-15T09:08:05.419Z,59.90
2023-05-15T09:09:04.873Z,57.90
2023-05-15T09:10:05.859Z,59.10
2023-05-15T09:11:06.857Z,59.00
2023-05-15T09:12:07.837Z,60.30
2023-05-15T09:13:08.314Z,58.20
2023-05-15T09:14:09.223Z,58.40
2023-05-15T09:15:10.199Z,55.40
2023-05-15T09:16:11.292Z,56.70
2023-05-15T09:17:11.758Z,51.50
2023-05-15T09:18:12.399Z,52.00
2023-05-15T09:19:13.164Z,53.90
2023-05-15T09:20:13.645Z,54.10
2023-05-15T09:21:15.116Z,51.40
2023-05-15T09:22:15.933Z,52.50
2023-05-15T09:23:16.579Z,55.00
2023-05-15T09:24:16.650Z,50.50
2023-05-15T09:25:17.078Z,53.80
2023-05-15T09:26:18.024Z,52.90
2023-05-15T09:27:18.832Z,54.90
2023-05-15T09:28:19.315Z,52.10
2023-05-15T09:29:19.884Z,52.60
2023-05-15T09:30:20.788Z,47.70
2023-05-15T09:31:21.666Z,49.20
2023-05-15T09:32:22.330Z,48.50
2023-05-15T09:33:23.058Z,49.40
2023-05-15T09:34:23.597Z,50.30
2023-05-15T09:35:25.976Z,46.80
2023-05-15T09:36:25.588Z,47.10
2023-05-15T09:37:26.336Z,46.10
2023-05-15T09:38:26.755Z,45.40
2023-05-15T09:39:28.353Z,47.10
2023-05-15T09:40:29.218Z,47.10
2023-05-15T09:41:38.195Z,49.30
2023-05-15T09:42:30.621Z,47.00
2023-05-15T09:43:32.199Z,44.50
2023-05-15T09:44:31.077Z,45.90
2023-05-15T09:45:32.252Z,48.90
2023-05-15T09:46:32.719Z,48.50
2023-05-15T09:47:35.087Z,49.50
2023-05-15T09:48:34.362Z,47.10
2023-05-15T09:49:34.793Z,47.40
2023-05-15T09:50:35.841Z,44.20
2023-05-15T09:51:36.571Z,46.40
2023-05-15T09:52:37.083Z,46.20
2023-05-15T09:53:37.632Z,45.70
2023-05-15T09:54:38.193Z,44.90
2023-05-15T09:55:39.317Z,45.40
2023-05-15T09:56:40.197Z,44.90
2023-05-15T09:57:40.801Z,40.60
2023-05-15T09:58:43.624Z,45.90
2023-05-15T09:59:44.002Z,44.20
2023-05-15T10:00:48.643Z,42.70
2023-05-15T10:01:44.925Z,42.90
2023-05-15T10:02:45.037Z,39.10
2023-05-15T10:03:45.076Z,40.60
2023-05-15T10:04:46.156Z,40.40
2023-05-15T10:05:47.321Z,40.30
2023-05-15T10:06:47.444Z,43.20
2023-05-15T10:07:47.970Z,43.10
2023-05-15T10:08:48.892Z,43.60
2023-05-15T10:09:49.848Z,41.00
2023-05-15T10:10:50.889Z,42.10
2023-05-15T10:11:51.469Z,41.20
2023-05-15T10:12:52.367Z,43.60
2023-05-15T10:13:53.295Z,41.40
2023-05-15T10:14:54.222Z,41.30
2023-05-15T10:15:55.322Z,42.70
2023-05-15T10:16:55.814Z,42.60
2023-05-15T10:17:56.708Z,40.10
2023-05-15T10:18:57.804Z,41.80
2023-05-15T10:19:59.724Z,40.30
2023-05-15T10:20:59.226Z,40.50
2023-05-15T10:22:00.197Z,41.50
2023-05-15T10:23:01.082Z,38.60
2023-05-15T10:24:01.927Z,39.90
2023-05-15T10:25:05.472Z,40.50
2023-05-15T10:26:05.628Z,40.90
2023-05-15T10:27:05.096Z,40.40
2023-05-15T10:28:05.367Z,40.80
2023-05-15T10:29:06.874Z,40.80
2023-05-15T10:30:07.464Z,39.20
2023-05-15T10:31:09.578Z,42.90
2023-05-15T10:32:09.536Z,40.50
2023-05-15T10:33:10.178Z,40.60
2023-05-15T10:34:10.081Z,38.80
2023-05-15T10:35:11.366Z,40.30
2023-05-15T10:36:12.052Z,38.70
2023-05-15T10:37:13.278Z,40.30
2023-05-15T10:38:13.530Z,36.70
2023-05-15T10:39:14.716Z,38.20
2023-05-15T10:40:15.280Z,37.60
2023-05-15T10:41:17.940Z,37.00
2023-05-15T10:42:16.679Z,36.60
2023-05-15T10:43:17.046Z,37.90
2023-05-15T10:44:18.269Z,38.20
2023-05-15T10:45:18.207Z,34.80
2023-05-15T10:53:36.579Z,36.80
2023-05-15T10:54:36.315Z,37.20
2023-05-15T10:55:36.317Z,33.30
2023-05-15T10:56:35.368Z,36.10
2023-05-15T10:57:36.224Z,36.20
2023-05-15T10:58:38.350Z,38.70
2023-05-15T10:59:38.086Z,37.00
2023-05-15T11:00:38.668Z,37.50
2023-05-15T11:01:39.398Z,36.70
2023-05-15T11:02:41.229Z,37.10
2023-05-15T11:06:00.353Z,37.60
2023-05-15T11:06:36.806Z,36.50
2023-05-15T11:07:37.306Z,36.80
2023-05-15T11:08:37.779Z,36.90
2023-05-15T11:09:38.586Z,38.10
2023-05-15T11:12:35.675Z,35.40
2023-05-15T11:15:39.916Z,36.00
2023-05-15T11:16:39.977Z,35.90
2023-05-15T11:17:40.899Z,36.00
2023-05-15T11:18:41.496Z,33.90
2023-05-15T11:19:43.066Z,33.50
2023-05-15T11:20:43.055Z,34.90
2023-05-15T11:21:43.859Z,36.70
2023-05-15T11:22:45.476Z,36.10
2023-05-15T11:23:44.891Z,35.70
2023-05-15T11:24:46.116Z,33.10
2023-05-15T11:25:46.539Z,34.60
2023-05-15T11:26:47.778Z,34.70
2023-05-15T11:27:49.614Z,35.50
2023-05-15T11:28:49.297Z,35.00
2023-05-15T11:29:49.918Z,34.40
2023-05-15T11:30:51.282Z,33.50
2023-05-15T11:31:51.349Z,34.00
2023-05-15T11:32:53.016Z,35.80
2023-05-15T11:33:52.576Z,33.50
2023-05-15T11:34:55.925Z,35.10
2023-05-15T11:35:55.175Z,34.80
2023-05-15T11:36:54.759Z,34.60
2023-05-15T11:37:58.078Z,36.30
2023-05-15T11:38:56.016Z,35.70
2023-05-15T11:39:56.623Z,35.70
2023-05-15T11:40:57.473Z,36.30
2023-05-15T11:41:59.276Z,34.00
2023-05-15T11:42:59.333Z,34.40
2023-05-15T11:44:00.225Z,32.20
2023-05-15T11:45:01.180Z,34.00
2023-05-15T11:46:02.146Z,34.40
2023-05-15T11:47:03.067Z,32.10
2023-05-15T11:48:03.994Z,32.40
2023-05-15T11:49:04.934Z,33.70
2023-05-15T11:50:05.856Z,33.50
2023-05-15T11:51:06.773Z,30.80
2023-05-15T11:52:07.760Z,30.30
2023-05-15T11:53:08.753Z,31.40
2023-05-15T11:54:09.633Z,30.50
2023-05-15T11:55:10.544Z,32.80
2023-05-15T11:56:11.450Z,30.80
2023-05-15T11:57:11.897Z,32.70
2023-05-15T11:58:12.886Z,32.30
2023-05-15T11:59:14.118Z,32.70
2023-05-15T12:00:14.358Z,31.30
2023-05-15T12:01:14.853Z,32.50
2023-05-15T12:02:15.809Z,31.00
2023-05-15T12:03:17.377Z,32.20
2023-05-15T12:04:17.161Z,33.80
2023-05-15T12:05:17.729Z,31.10
2023-05-15T12:06:18.613Z,30.90
2023-05-15T12:07:19.497Z,32.20
2023-05-15T12:08:20.406Z,30.90
2023-05-15T12:09:21.315Z,28.80
2023-05-15T12:10:22.209Z,31.00
2023-05-15T12:11:23.094Z,31.70
2023-05-15T12:12:23.975Z,32.00
2023-05-15T12:13:24.949Z,29.10
2023-05-15T12:14:25.874Z,30.20
2023-05-15T12:15:26.755Z,30.10
2023-05-15T12:16:27.474Z,28.70
2023-05-15T12:17:28.825Z,30.90
2023-05-15T12:18:28.766Z,29.10
2023-05-15T12:19:29.633Z,30.80
2023-05-15T12:20:30.536Z,29.40
2023-05-15T12:21:32.314Z,28.30
2023-05-15T12:22:32.173Z,29.00
2023-05-15T12:23:33.078Z,30.50
2023-05-15T12:24:33.971Z,30.70
2023-05-15T12:25:34.968Z,29.00
2023-05-15T12:26:35.836Z,28.60
2023-05-15T12:27:36.745Z,28.50
2023-05-15T12:28:38.279Z,30.40
2023-05-15T12:29:38.134Z,28.40
2023-05-15T12:30:39.033Z,30.90
2023-05-15T12:31:40.830Z,30.30
2023-05-15T12:32:40.767Z,29.40
2023-05-15T12:33:41.656Z,29.30
2023-05-15T12:34:42.577Z,28.80
2023-05-15T12:35:43.449Z,31.80
2023-05-15T12:36:44.407Z,29.00
2023-05-15T12:37:45.256Z,28.90
2023-05-15T12:38:47.222Z,27.70
2023-05-15T12:39:47.101Z,27.40
2023-05-15T12:40:48.006Z,27.90
2023-05-15T12:41:49.798Z,28.20
2023-05-15T12:42:49.687Z,27.90
2023-05-15T12:43:50.619Z,28.80
2023-05-15T12:44:51.499Z,29.00
2023-05-15T12:45:52.419Z,28.40
2023-05-15T12:46:53.287Z,29.30
2023-05-15T12:47:54.277Z,31.70
2023-05-15T12:48:55.221Z,31.80
2023-05-15T12:49:56.084Z,29.20
2023-05-15T12:50:56.981Z,31.40
2023-05-15T12:51:57.867Z,29.00
2023-05-15T12:52:58.755Z,29.50
2023-05-15T12:53:59.640Z,30.30
2023-05-15T12:55:00.527Z,29.60
2023-05-15T12:56:01.446Z,29.50
2023-05-15T12:57:02.327Z,29.50
2023-05-15T12:58:03.196Z,28.80
2023-05-15T12:59:04.094Z,26.50
2023-05-15T13:00:04.975Z,29.40
2023-05-15T13:01:05.908Z,29.90
2023-05-15T13:02:06.762Z,26.40
2023-05-15T13:03:07.548Z,26.20
2023-05-15T13:04:08.015Z,28.10
2023-05-15T13:05:08.940Z,26.60
2023-05-15T13:06:09.816Z,25.80
2023-05-15T13:07:10.710Z,28.80
2023-05-15T13:08:11.655Z,24.30
2023-05-15T13:09:12.565Z,25.80
2023-05-15T13:10:13.455Z,27.10
2023-05-15T13:11:16.994Z,26.80
2023-05-15T13:12:14.810Z,23.80
2023-05-15T13:13:15.716Z,28.40
2023-05-15T13:14:16.654Z,27.40
2023-05-15T13:15:17.542Z,25.40
2023-05-15T13:16:18.575Z,27.00
2023-05-15T13:17:18.949Z,27.20
2023-05-15T13:18:19.859Z,25.40
2023-05-15T13:19:20.785Z,25.00
2023-05-15T13:20:21.638Z,26.70
2023-05-15T13:21:22.561Z,24.60